Flight Track Log - Related Links

Times and Time Zones

All times are in EDT time to prevent confusion due to time zone crossing. See the N878BT flight status page for this flight to view local times or setup timezone preferences in your user account.

Time Position Orientation Groundspeed Altitude Reporting Facility
EDT Latitude Longitude Course Direction KTS MPH feet Rate Location/Type
Mon 16:31:46 46.8689 -96.8011 159° South 116 133 2,500  Level Minneapolis Center
Mon 16:32:48 46.8383 -96.7839 159° South 113 130 3,300 732 Climbing Minneapolis Center
Mon 16:33:49 46.8133 -96.7697 159° South 118 136 4,000 823 Climbing Minneapolis Center
Mon 16:34:52 46.7731 -96.7464 158° South 121 139 5,000 864 Climbing Minneapolis Center
Mon 16:35:54 46.7392 -96.7278 159° South 124 143 5,800 726 Climbing Minneapolis Center
Mon 16:36:56 46.7056 -96.7081 158° South 125 144 6,500 662 Climbing Minneapolis Center
Mon 16:37:00 46.7094 -96.6952 159° South  Level Estimated
Mon 16:38:10 46.6733 -96.6892 158° South 128 147 7,300  Level Minneapolis Center
Mon 16:39:12 46.6311 -96.6653 159° South 127 146 8,200 823 Climbing Minneapolis Center
Mon 16:40:14 46.5956 -96.6447 158° South 131 151 9,000 726 Climbing Minneapolis Center
Mon 16:41:16 46.5600 -96.6250 159° South 139 160 9,700 677 Climbing Minneapolis Center
Mon 16:42:18 46.5200 -96.6025 159° South 146 168 10,400 581 Climbing Minneapolis Center
Mon 16:43:20 46.4794 -96.5792 158° South 151 174 10,900 290 Climbing Minneapolis Center
Mon 16:44:22 46.4325 -96.5519 158° South 171 197 11,000 48 Climbing Minneapolis Center
Mon 16:45:24 46.3842 -96.5256 159° South 177 204 11,000  Level Minneapolis Center
Mon 16:47:28 46.2894 -96.4714 158° South 177 204 11,000  Level Minneapolis Center
Mon 16:48:30 46.2464 -96.4472 159° South 174 200 11,000  Level Minneapolis Center
Mon 16:49:32 46.1994 -96.4228 160° South 171 197 11,000 44 Level Minneapolis Center
Mon 16:50:46 46.1586 -96.3978 157° South 169 194 11,100 44 Climbing Minneapolis Center
Mon 16:51:48 46.1056 -96.3689 159° South 169 194 11,100  Level Minneapolis Center
Mon 16:52:50 46.0514 -96.3400 160° South 172 198 11,100  Level Minneapolis Center
Mon 16:54:04 46.0064 -96.3139 158° South 173 199 11,100  Level Minneapolis Center
Mon 16:55:06 45.9522 -96.2839 159° South 175 201 11,100  Level Minneapolis Center
Mon 16:56:08 45.9069 -96.2575 158° South 176 203 11,100  Level Minneapolis Center
Mon 16:57:10 45.8622 -96.2331 159° South 174 200 11,100  Level Minneapolis Center
Mon 16:58:12 45.8164 -96.2100 161° South 174 200 11,100  Level Minneapolis Center
Mon 16:59:14 45.7622 -96.1789 158° South 175 201 11,100  Level Minneapolis Center
Mon 17:00:16 45.7161 -96.1519 158° South 178 205 11,100  Level Minneapolis Center
Mon 17:01:18 45.6689 -96.1272 160° South 181 208 11,100  Level Minneapolis Center
Mon 17:02:20 45.6222 -96.1019 159° South 180 207 11,100  Level Minneapolis Center
Mon 17:03:22 45.5750 -96.0750 158° South 182 209 11,100  Level Minneapolis Center
Mon 17:04:36 45.5283 -96.0489 159° South 181 208 11,100  Level Minneapolis Center
Mon 17:05:39 45.4628 -96.0131 159° South 181 208 11,100  Level Minneapolis Center
Mon 17:06:40 45.4167 -95.9875 159° South 179 206 11,100  Level Minneapolis Center
Mon 17:07:42 45.3697 -95.9622 159° South 180 207 11,100  Level Minneapolis Center
Mon 17:08:44 45.3231 -95.9383 160° South 179 206 11,100  Level Minneapolis Center
Mon 17:09:46 45.2847 -95.9178 159° South 181 208 11,100  Level Minneapolis Center
Mon 17:10:48 45.2292 -95.8864 158° South 180 207 11,100  Level Minneapolis Center
Mon 17:11:50 45.1728 -95.8567 160° South 180 207 11,100  Level Minneapolis Center
Mon 17:12:52 45.1258 -95.8311 159° South 181 208 11,100 -48 Level Minneapolis Center
Mon 17:13:54 45.0786 -95.8069 160° South 180 207 11,000 -48 Descending Minneapolis Center
Mon 17:14:56 45.0325 -95.7811 158° South 180 207 11,000  Level Minneapolis Center
Mon 17:15:58 44.9856 -95.7556 159° South 180 207 11,000  Level Minneapolis Center
Mon 17:17:00 44.9389 -95.7311 160° South 180 207 11,000  Level Minneapolis Center
Mon 17:18:14 44.8933 -95.7064 159° South 177 204 11,000  Level Minneapolis Center
Mon 17:19:16 44.8281 -95.6733 160° South 178 205 11,000  Level Minneapolis Center
Mon 17:20:18 44.7814 -95.6478 159° South 180 207 11,000  Level Minneapolis Center
Mon 17:21:20 44.7447 -95.6267 158° South 179 206 11,000  Level Minneapolis Center
Mon 17:22:22 44.6894 -95.5986 160° South 176 203 11,000  Level Minneapolis Center
Mon 17:23:24 44.6531 -95.5797 160° South 176 203 11,000  Level Minneapolis Center
Mon 17:24:26 44.5969 -95.5492 159° South 178 205 11,000  Level Minneapolis Center
Mon 17:25:28 44.5419 -95.5214 160° South 177 204 11,000  Level Minneapolis Center
Mon 17:26:30 44.5061 -95.5017 159° South 175 201 11,000  Level Minneapolis Center
Mon 17:27:32 44.4514 -95.4725 159° South 175 201 11,000  Level Minneapolis Center
Mon 17:28:34 44.4058 -95.4486 159° South 175 201 11,000  Level Minneapolis Center
Mon 17:29:36 44.3608 -95.4258 160° South 173 199 11,000  Level Minneapolis Center
Mon 17:30:38 44.3161 -95.4025 160° South 172 198 11,000  Level Minneapolis Center
Mon 17:31:40 44.2614 -95.3722 158° South 174 200 11,000  Level Minneapolis Center
Mon 17:32:42 44.2167 -95.3503 161° South 174 200 11,000  Level Minneapolis Center
Mon 17:33:44 44.1728 -95.3269 159° South 171 197 11,000  Level Minneapolis Center
Mon 17:34:46 44.1286 -95.3033 159° South 170 196 11,000  Level Minneapolis Center
Mon 17:35:48 44.0847 -95.2822 161° South 168 193 11,000  Level Minneapolis Center
Mon 17:36:50 44.0408 -95.2594 160° South 168 193 11,000  Level Minneapolis Center
Mon 17:38:03 43.9967 -95.2364 159° South 168 193 11,000  Level Minneapolis Center
Mon 17:39:06 43.9314 -95.2028 160° South 176 203 11,000  Level Minneapolis Center
Mon 17:40:08 43.8861 -95.1789 159° South 175 201 11,000  Level Minneapolis Center
Mon 17:41:09 43.8392 -95.1567 161° South 177 204 11,000  Level Minneapolis Center
Mon 17:42:11 43.7939 -95.1322 159° South 177 204 11,000  Level Minneapolis Center
Mon 17:43:25 43.7483 -95.1089 160° South 174 200 11,000  Level Minneapolis Center
Mon 17:44:27 43.6958 -95.0817 159° South 170 196 11,000  Level Minneapolis Center
Mon 17:45:29 43.6428 -95.0544 160° South 169 194 11,000  Level Minneapolis Center
Mon 17:46:31 43.5975 -95.0325 161° South 172 198 11,000  Level Minneapolis Center
Mon 17:47:33 43.5536 -95.0092 159° South 171 197 11,000 49 Level Minneapolis Center
Mon 17:48:34 43.5100 -94.9875 160° South 168 193 11,100 49 Climbing Minneapolis Center
Mon 17:49:36 43.4647 -94.9650 160° South 170 196 11,100  Level Minneapolis Center
Mon 17:50:38 43.4200 -94.9414 159° South 173 199 11,100  Level Minneapolis Center
Mon 17:51:40 43.3753 -94.9192 160° South 172 198 11,100  Level Minneapolis Center
Mon 17:52:42 43.3225 -94.8922 160° South 169 194 11,100  Level Minneapolis Center
Mon 17:53:55 43.2783 -94.8711 161° South 169 194 11,100  Level Minneapolis Center
Mon 17:54:58 43.2281 -94.8425 157° South 166 191 11,100  Level Minneapolis Center
Mon 17:55:59 43.1839 -94.8186 158° South 167 192 11,100  Level Minneapolis Center
Mon 17:57:01 43.1400 -94.7978 161° South 168 193 11,100  Level Minneapolis Center
Mon 17:58:03 43.0956 -94.7761 160° South 168 193 11,100  Level Minneapolis Center
Mon 17:59:05 43.0525 -94.7514 157° South 169 194 11,100  Level Minneapolis Center
Mon 18:00:07 42.9975 -94.7281 163° South 170 196 11,100  Level Minneapolis Center
Mon 18:01:08 42.9503 -94.7119 166° South 172 198 11,100  Level Minneapolis Center
Mon 18:02:10 42.9119 -94.6847 153° Southeast 167 192 11,100  Level Minneapolis Center
Mon 18:03:12 42.8678 -94.6642 161° South 165 190 11,100  Level Minneapolis Center
Mon 18:04:13 42.8322 -94.6469 160° South 167 192 11,100  Level Minneapolis Center
Mon 18:05:16 42.7803 -94.6228 161° South 166 191 11,100  Level Minneapolis Center
Mon 18:06:18 42.7386 -94.6019 160° South 162 186 11,100  Level Minneapolis Center
Mon 18:07:19 42.6961 -94.5811 160° South 161 185 11,100  Level Minneapolis Center
Mon 18:08:21 42.6456 -94.5561 160° South 162 186 11,100  Level Minneapolis Center
Mon 18:09:23 42.6042 -94.5369 161° South 161 185 11,100 -176 Level Minneapolis Center
Mon 18:10:37 42.5589 -94.5133 159° South 170 196 10,700 -441 Descending Minneapolis Center
Mon 18:11:39 42.5056 -94.4875 160° South 171 197 10,100 -629 Descending Minneapolis Center
Mon 18:12:41 42.4539 -94.4617 160° South 181 208 9,400 -581 Descending Minneapolis Center
Mon 18:13:43 42.4036 -94.4392 162° South 186 214 8,900 -581 Descending Minneapolis Center
Mon 18:14:45 42.3411 -94.4069 159° South 192 221 8,200 -667 Descending Minneapolis Center
Mon 18:15:22 42.3158 -94.3844 147° Southeast 192 221 7,800 -689 Descending Minneapolis Center
Mon 18:15:46 42.2967 -94.3750 160° South 191 220 7,500 -706 Descending Minneapolis Center
Mon 18:16:47 42.2453 -94.3511 161° South 191 220 6,800 -632 Descending Minneapolis Center
Mon 18:17:02 42.2317 -94.3553 193° South 192 221 6,700 -600 Descending Minneapolis Center
Mon 18:17:47 42.1983 -94.3242 145° Southeast 189 217 6,200 -787 Descending Minneapolis Center
Mon 18:18:03 42.1761 -94.3267 185° South 188 216 5,900 -590 Descending Minneapolis Center
Mon 18:18:48 42.1492 -94.3028 147° Southeast 183 211 5,600 -581 Descending Minneapolis Center
Mon 18:19:05 42.1297 -94.3044 184° South 178 205 5,300 -689 Descending Minneapolis Center
Mon 18:19:49 42.1044 -94.2814 146° Southeast 168 193 4,900 -484 Descending Minneapolis Center
Mon 18:20:07 42.0833 -94.2833 184° South 165 190 4,800 -545 Descending Minneapolis Center
Mon 18:20:55 42.0594 -94.2572 141° Southeast 161 185 4,300 -550 Descending Minneapolis Center
Mon 18:21:56 42.0189 -94.2381 161° South 159 183 3,800 -477 Descending Minneapolis Center
Mon 18:22:23 42.0003 -94.2425 190° South 160 184 3,600 -590 Descending Minneapolis Center
Mon 18:22:57 41.9761 -94.2167 142° Southeast 159 183 3,200 -484 Descending Minneapolis Center
Mon 18:23:25 41.9497 -94.2169 180° South 158 182 3,100 -300 Descending Minneapolis Center
Mon 18:23:57 41.9336 -94.2006 143° Southeast 157 181 2,900 -387 Descending Minneapolis Center
Mon 18:24:27 41.9042 -94.2108 195° South 154 177 2,700 -587 Descending Minneapolis Center
Mon 18:25:29 41.8700 -94.2006 167° South 127 146 2,000 -435 Descending Minneapolis Center
Mon 18:26:31 41.8431 -94.1856 157° South 120 138 1,800 -194 Descending Minneapolis Center

Login

Don't have an account? Register now (free) for customized features, flight alerts, and more!